sensor_id;sensor_type;location;lat;lon;timestamp;pressure;altitude;pressure_sealevel;temperature
24639;BMP180;1641;51.306;12.384;2023-07-28T00:01:50;99079.00;;;20.10
24639;BMP180;1641;51.306;12.384;2023-07-28T00:04:15;99077.00;;;20.20
24639;BMP180;1641;51.306;12.384;2023-07-28T00:06:40;99079.00;;;20.20
24639;BMP180;1641;51.306;12.384;2023-07-28T00:09:05;99076.00;;;20.30
24639;BMP180;1641;51.306;12.384;2023-07-28T00:11:31;99076.00;;;20.20
24639;BMP180;1641;51.306;12.384;2023-07-28T00:13:56;99071.00;;;20.20
24639;BMP180;1641;51.306;12.384;2023-07-28T00:16:21;99078.00;;;20.20
24639;BMP180;1641;51.306;12.384;2023-07-28T00:18:46;99071.00;;;20.20
24639;BMP180;1641;51.306;12.384;2023-07-28T00:21:12;99076.00;;;20.20
24639;BMP180;1641;51.306;12.384;2023-07-28T00:23:37;99067.00;;;20.40
24639;BMP180;1641;51.306;12.384;2023-07-28T00:26:02;99040.00;;;20.60
24639;BMP180;1641;51.306;12.384;2023-07-28T00:28:27;99065.00;;;20.70
24639;BMP180;1641;51.306;12.384;2023-07-28T00:30:53;99068.00;;;20.60
24639;BMP180;1641;51.306;12.384;2023-07-28T00:33:18;99067.00;;;20.40
24639;BMP180;1641;51.306;12.384;2023-07-28T00:35:44;99068.00;;;20.30
24639;BMP180;1641;51.306;12.384;2023-07-28T00:38:09;99061.00;;;20.40
24639;BMP180;1641;51.306;12.384;2023-07-28T00:40:37;99061.00;;;20.10
24639;BMP180;1641;51.306;12.384;2023-07-28T00:43:02;99064.00;;;20.20
24639;BMP180;1641;51.306;12.384;2023-07-28T00:45:29;99059.00;;;20.20
24639;BMP180;1641;51.306;12.384;2023-07-28T00:47:56;99064.00;;;20.30
24639;BMP180;1641;51.306;12.384;2023-07-28T00:50:24;99069.00;;;20.50
24639;BMP180;1641;51.306;12.384;2023-07-28T00:52:50;99060.00;;;20.50
24639;BMP180;1641;51.306;12.384;2023-07-28T00:55:16;99062.00;;;20.50
24639;BMP180;1641;51.306;12.384;2023-07-28T00:57:41;99063.00;;;20.60
24639;BMP180;1641;51.306;12.384;2023-07-28T01:00:07;99065.00;;;20.40
24639;BMP180;1641;51.306;12.384;2023-07-28T01:02:33;99056.00;;;20.70
24639;BMP180;1641;51.306;12.384;2023-07-28T01:05:01;99048.00;;;20.70
24639;BMP180;1641;51.306;12.384;2023-07-28T01:12:20;99047.00;;;20.40
24639;BMP180;1641;51.306;12.384;2023-07-28T01:14:45;99040.00;;;20.20
24639;BMP180;1641;51.306;12.384;2023-07-28T01:17:13;99051.00;;;20.30
24639;BMP180;1641;51.306;12.384;2023-07-28T01:19:39;99047.00;;;20.50
24639;BMP180;1641;51.306;12.384;2023-07-28T01:27:25;99059.00;;;20.10
24639;BMP180;1641;51.306;12.384;2023-07-28T01:29:53;99052.00;;;20.40
24639;BMP180;1641;51.306;12.384;2023-07-28T01:32:19;99047.00;;;20.30
24639;BMP180;1641;51.306;12.384;2023-07-28T01:34:44;99053.00;;;20.50
24639;BMP180;1641;51.306;12.384;2023-07-28T01:37:10;99054.00;;;20.40
24639;BMP180;1641;51.306;12.384;2023-07-28T01:39:35;99047.00;;;20.40
24639;BMP180;1641;51.306;12.384;2023-07-28T01:42:00;99043.00;;;20.40
24639;BMP180;1641;51.306;12.384;2023-07-28T01:44:25;99054.00;;;20.40
24639;BMP180;1641;51.306;12.384;2023-07-28T01:46:51;99042.00;;;20.30
24639;BMP180;1641;51.306;12.384;2023-07-28T01:49:16;99049.00;;;20.40
24639;BMP180;1641;51.306;12.384;2023-07-28T01:51:41;99053.00;;;20.40
24639;BMP180;1641;51.306;12.384;2023-07-28T01:54:07;99042.00;;;20.50
24639;BMP180;1641;51.306;12.384;2023-07-28T01:56:32;99039.00;;;20.50
24639;BMP180;1641;51.306;12.384;2023-07-28T01:58:57;99036.00;;;20.40
24639;BMP180;1641;51.306;12.384;2023-07-28T02:01:22;99034.00;;;20.20
24639;BMP180;1641;51.306;12.384;2023-07-28T02:03:51;99037.00;;;20.30
24639;BMP180;1641;51.306;12.384;2023-07-28T02:06:16;99038.00;;;20.30
24639;BMP180;1641;51.306;12.384;2023-07-28T02:08:41;99033.00;;;20.20
24639;BMP180;1641;51.306;12.384;2023-07-28T02:11:06;99037.00;;;20.40
24639;BMP180;1641;51.306;12.384;2023-07-28T02:13:32;99006.00;;;20.50
24639;BMP180;1641;51.306;12.384;2023-07-28T02:15:57;99037.00;;;20.40
24639;BMP180;1641;51.306;12.384;2023-07-28T02:18:22;99022.00;;;20.40
24639;BMP180;1641;51.306;12.384;2023-07-28T02:20:48;99021.00;;;20.30
24639;BMP180;1641;51.306;12.384;2023-07-28T02:23:14;99026.00;;;20.30
24639;BMP180;1641;51.306;12.384;2023-07-28T02:25:39;99039.00;;;20.20
24639;BMP180;1641;51.306;12.384;2023-07-28T02:28:06;99051.00;;;20.10
24639;BMP180;1641;51.306;12.384;2023-07-28T02:30:31;99038.00;;;20.00
24639;BMP180;1641;51.306;12.384;2023-07-28T02:32:56;99037.00;;;20.00
24639;BMP180;1641;51.306;12.384;2023-07-28T02:35:22;99034.00;;;20.10
24639;BMP180;1641;51.306;12.384;2023-07-28T02:37:47;99044.00;;;20.10
24639;BMP180;1641;51.306;12.384;2023-07-28T02:40:16;99052.00;;;20.10
24639;BMP180;1641;51.306;12.384;2023-07-28T02:42:41;99030.00;;;20.00
24639;BMP180;1641;51.306;12.384;2023-07-28T02:45:07;99051.00;;;20.00
24639;BMP180;1641;51.306;12.384;2023-07-28T02:47:32;99053.00;;;20.00
24639;BMP180;1641;51.306;12.384;2023-07-28T02:49:57;99042.00;;;20.20
24639;BMP180;1641;51.306;12.384;2023-07-28T02:52:23;99043.00;;;20.20
24639;BMP180;1641;51.306;12.384;2023-07-28T02:54:48;99039.00;;;20.10
24639;BMP180;1641;51.306;12.384;2023-07-28T02:57:15;99033.00;;;20.20
24639;BMP180;1641;51.306;12.384;2023-07-28T02:59:40;99032.00;;;20.10
24639;BMP180;1641;51.306;12.384;2023-07-28T03:02:05;99032.00;;;20.20
24639;BMP180;1641;51.306;12.384;2023-07-28T03:04:31;99037.00;;;20.20
24639;BMP180;1641;51.306;12.384;2023-07-28T03:06:56;99057.00;;;20.10
24639;BMP180;1641;51.306;12.384;2023-07-28T03:09:21;99060.00;;;20.20
24639;BMP180;1641;51.306;12.384;2023-07-28T03:11:47;99053.00;;;20.30
24639;BMP180;1641;51.306;12.384;2023-07-28T03:14:12;99067.00;;;20.20
24639;BMP180;1641;51.306;12.384;2023-07-28T03:16:38;99071.00;;;20.10
24639;BMP180;1641;51.306;12.384;2023-07-28T03:19:03;99064.00;;;20.20
24639;BMP180;1641;51.306;12.384;2023-07-28T03:21:33;99059.00;;;20.20
24639;BMP180;1641;51.306;12.384;2023-07-28T03:23:58;99064.00;;;20.30
24639;BMP180;1641;51.306;12.384;2023-07-28T03:26:23;99062.00;;;20.40
24639;BMP180;1641;51.306;12.384;2023-07-28T03:28:49;99063.00;;;20.30
24639;BMP180;1641;51.306;12.384;2023-07-28T03:31:14;99069.00;;;20.30
24639;BMP180;1641;51.306;12.384;2023-07-28T03:33:39;99080.00;;;20.30
24639;BMP180;1641;51.306;12.384;2023-07-28T03:36:04;99073.00;;;20.30
24639;BMP180;1641;51.306;12.384;2023-07-28T03:38:30;99075.00;;;20.30
24639;BMP180;1641;51.306;12.384;2023-07-28T03:40:55;99074.00;;;20.20
24639;BMP180;1641;51.306;12.384;2023-07-28T03:43:21;99076.00;;;20.20
24639;BMP180;1641;51.306;12.384;2023-07-28T03:45:46;99070.00;;;20.00
24639;BMP180;1641;51.306;12.384;2023-07-28T03:48:11;99086.00;;;20.10
24639;BMP180;1641;51.306;12.384;2023-07-28T03:50:37;99073.00;;;20.30
24639;BMP180;1641;51.306;12.384;2023-07-28T03:53:02;99071.00;;;20.20
24639;BMP180;1641;51.306;12.384;2023-07-28T03:55:27;99066.00;;;20.30
24639;BMP180;1641;51.306;12.384;2023-07-28T03:57:52;99074.00;;;20.30
24639;BMP180;1641;51.306;12.384;2023-07-28T04:00:18;99065.00;;;20.10
24639;BMP180;1641;51.306;12.384;2023-07-28T04:02:43;99074.00;;;20.10
24639;BMP180;1641;51.306;12.384;2023-07-28T04:05:08;99082.00;;;20.10
24639;BMP180;1641;51.306;12.384;2023-07-28T04:07:34;99075.00;;;20.10
24639;BMP180;1641;51.306;12.384;2023-07-28T04:09:59;99076.00;;;20.00
24639;BMP180;1641;51.306;12.384;2023-07-28T04:12:24;99073.00;;;20.30
24639;BMP180;1641;51.306;12.384;2023-07-28T04:14:49;99075.00;;;20.40
24639;BMP180;1641;51.306;12.384;2023-07-28T04:17:15;99075.00;;;20.50
24639;BMP180;1641;51.306;12.384;2023-07-28T04:19:40;99075.00;;;20.40
24639;BMP180;1641;51.306;12.384;2023-07-28T04:22:05;99060.00;;;20.30
24639;BMP180;1641;51.306;12.384;2023-07-28T04:24:31;99074.00;;;20.50
24639;BMP180;1641;51.306;12.384;2023-07-28T04:26:56;99077.00;;;20.60
24639;BMP180;1641;51.306;12.384;2023-07-28T04:29:22;99075.00;;;20.50
24639;BMP180;1641;51.306;12.384;2023-07-28T04:31:47;99072.00;;;20.30
24639;BMP180;1641;51.306;12.384;2023-07-28T04:34:12;99088.00;;;20.20
24639;BMP180;1641;51.306;12.384;2023-07-28T04:36:37;99094.00;;;20.10
24639;BMP180;1641;51.306;12.384;2023-07-28T04:39:03;99088.00;;;20.10
24639;BMP180;1641;51.306;12.384;2023-07-28T04:41:28;99088.00;;;20.40
24639;BMP180;1641;51.306;12.384;2023-07-28T04:43:54;99079.00;;;20.50
24639;BMP180;1641;51.306;12.384;2023-07-28T04:46:19;99085.00;;;20.40
24639;BMP180;1641;51.306;12.384;2023-07-28T04:48:45;99084.00;;;20.30
24639;BMP180;1641;51.306;12.384;2023-07-28T04:51:11;99083.00;;;20.10
24639;BMP180;1641;51.306;12.384;2023-07-28T04:53:36;99086.00;;;20.20
24639;BMP180;1641;51.306;12.384;2023-07-28T04:56:01;99077.00;;;20.30
24639;BMP180;1641;51.306;12.384;2023-07-28T04:58:28;99080.00;;;20.20
24639;BMP180;1641;51.306;12.384;2023-07-28T05:00:53;99073.00;;;20.30
24639;BMP180;1641;51.306;12.384;2023-07-28T05:03:19;99087.00;;;20.40
24639;BMP180;1641;51.306;12.384;2023-07-28T05:05:44;99068.00;;;20.40
24639;BMP180;1641;51.306;12.384;2023-07-28T05:08:10;99091.00;;;20.50
24639;BMP180;1641;51.306;12.384;2023-07-28T05:10:35;99087.00;;;20.50
24639;BMP180;1641;51.306;12.384;2023-07-28T05:13:00;99088.00;;;20.50
24639;BMP180;1641;51.306;12.384;2023-07-28T05:15:26;99101.00;;;20.40
24639;BMP180;1641;51.306;12.384;2023-07-28T05:17:51;99111.00;;;20.40
24639;BMP180;1641;51.306;12.384;2023-07-28T05:20:16;99105.00;;;20.60
24639;BMP180;1641;51.306;12.384;2023-07-28T05:22:42;99109.00;;;20.50
24639;BMP180;1641;51.306;12.384;2023-07-28T05:25:07;99104.00;;;20.30
24639;BMP180;1641;51.306;12.384;2023-07-28T05:27:33;99097.00;;;20.30
24639;BMP180;1641;51.306;12.384;2023-07-28T05:29:58;99103.00;;;20.30
24639;BMP180;1641;51.306;12.384;2023-07-28T05:32:24;99096.00;;;20.40
24639;BMP180;1641;51.306;12.384;2023-07-28T05:34:49;99117.00;;;20.60
24639;BMP180;1641;51.306;12.384;2023-07-28T05:37:14;99115.00;;;20.50
24639;BMP180;1641;51.306;12.384;2023-07-28T05:39:39;99117.00;;;20.60
24639;BMP180;1641;51.306;12.384;2023-07-28T05:42:05;99125.00;;;20.50
24639;BMP180;1641;51.306;12.384;2023-07-28T05:44:30;99131.00;;;20.60
24639;BMP180;1641;51.306;12.384;2023-07-28T05:46:55;99127.00;;;20.70
24639;BMP180;1641;51.306;12.384;2023-07-28T05:49:21;99112.00;;;21.10
24639;BMP180;1641;51.306;12.384;2023-07-28T05:51:46;99137.00;;;21.20
24639;BMP180;1641;51.306;12.384;2023-07-28T05:54:12;99142.00;;;20.80
24639;BMP180;1641;51.306;12.384;2023-07-28T05:56:40;99143.00;;;21.00
24639;BMP180;1641;51.306;12.384;2023-07-28T05:59:05;99149.00;;;20.80
24639;BMP180;1641;51.306;12.384;2023-07-28T06:01:30;99152.00;;;20.90
24639;BMP180;1641;51.306;12.384;2023-07-28T06:03:56;99136.00;;;20.90
24639;BMP180;1641;51.306;12.384;2023-07-28T06:06:24;99157.00;;;20.80
24639;BMP180;1641;51.306;12.384;2023-07-28T06:08:50;99152.00;;;20.90
24639;BMP180;1641;51.306;12.384;2023-07-28T06:11:15;99160.00;;;20.80
24639;BMP180;1641;51.306;12.384;2023-07-28T06:13:40;99159.00;;;21.10
24639;BMP180;1641;51.306;12.384;2023-07-28T06:16:06;99165.00;;;21.30
24639;BMP180;1641;51.306;12.384;2023-07-28T06:18:31;99157.00;;;21.50
24639;BMP180;1641;51.306;12.384;2023-07-28T06:20:56;99163.00;;;21.60
24639;BMP180;1641;51.306;12.384;2023-07-28T06:23:22;99170.00;;;21.60
24639;BMP180;1641;51.306;12.384;2023-07-28T06:25:47;99173.00;;;21.60
24639;BMP180;1641;51.306;12.384;2023-07-28T06:28:13;99168.00;;;21.90
24639;BMP180;1641;51.306;12.384;2023-07-28T06:30:38;99164.00;;;22.30
24639;BMP180;1641;51.306;12.384;2023-07-28T06:33:09;99173.00;;;22.10
24639;BMP180;1641;51.306;12.384;2023-07-28T06:35:34;99177.00;;;21.90
24639;BMP180;1641;51.306;12.384;2023-07-28T06:38:01;99189.00;;;22.00
24639;BMP180;1641;51.306;12.384;2023-07-28T06:40:26;99180.00;;;22.40
24639;BMP180;1641;51.306;12.384;2023-07-28T06:42:54;99174.00;;;22.40
24639;BMP180;1641;51.306;12.384;2023-07-28T06:45:20;99189.00;;;21.80
24639;BMP180;1641;51.306;12.384;2023-07-28T06:47:45;99195.00;;;21.80
24639;BMP180;1641;51.306;12.384;2023-07-28T06:50:11;99192.00;;;21.60
24639;BMP180;1641;51.306;12.384;2023-07-28T06:52:36;99173.00;;;22.00
24639;BMP180;1641;51.306;12.384;2023-07-28T06:55:02;99196.00;;;22.60
24639;BMP180;1641;51.306;12.384;2023-07-28T06:57:27;99190.00;;;23.30
24639;BMP180;1641;51.306;12.384;2023-07-28T06:59:53;99193.00;;;23.00
24639;BMP180;1641;51.306;12.384;2023-07-28T07:02:18;99198.00;;;21.70
24639;BMP180;1641;51.306;12.384;2023-07-28T07:04:43;99201.00;;;22.20
24639;BMP180;1641;51.306;12.384;2023-07-28T07:07:09;99193.00;;;22.60
24639;BMP180;1641;51.306;12.384;2023-07-28T07:09:34;99197.00;;;21.90
24639;BMP180;1641;51.306;12.384;2023-07-28T07:12:00;99191.00;;;21.80
24639;BMP180;1641;51.306;12.384;2023-07-28T07:14:25;99195.00;;;21.60
24639;BMP180;1641;51.306;12.384;2023-07-28T07:16:50;99200.00;;;21.30
24639;BMP180;1641;51.306;12.384;2023-07-28T07:19:16;99208.00;;;22.00
24639;BMP180;1641;51.306;12.384;2023-07-28T07:21:41;99192.00;;;22.40
24639;BMP180;1641;51.306;12.384;2023-07-28T07:24:07;99191.00;;;22.60
24639;BMP180;1641;51.306;12.384;2023-07-28T07:26:32;99187.00;;;23.00
24639;BMP180;1641;51.306;12.384;2023-07-28T07:28:58;99192.00;;;22.60
24639;BMP180;1641;51.306;12.384;2023-07-28T07:31:23;99196.00;;;23.50
24639;BMP180;1641;51.306;12.384;2023-07-28T07:33:50;99199.00;;;24.00
24639;BMP180;1641;51.306;12.384;2023-07-28T07:36:16;99190.00;;;24.30
24639;BMP180;1641;51.306;12.384;2023-07-28T07:38:42;99199.00;;;24.20
24639;BMP180;1641;51.306;12.384;2023-07-28T07:41:08;99215.00;;;23.70
24639;BMP180;1641;51.306;12.384;2023-07-28T07:43:36;99206.00;;;23.50
24639;BMP180;1641;51.306;12.384;2023-07-28T07:46:01;99203.00;;;23.40
24639;BMP180;1641;51.306;12.384;2023-07-28T07:48:26;99207.00;;;23.20
24639;BMP180;1641;51.306;12.384;2023-07-28T07:50:52;99208.00;;;23.10
24639;BMP180;1641;51.306;12.384;2023-07-28T07:53:17;99213.00;;;23.00
24639;BMP180;1641;51.306;12.384;2023-07-28T07:55:42;99204.00;;;23.50
24639;BMP180;1641;51.306;12.384;2023-07-28T07:58:08;99204.00;;;24.30
24639;BMP180;1641;51.306;12.384;2023-07-28T08:00:33;99214.00;;;24.80
24639;BMP180;1641;51.306;12.384;2023-07-28T08:02:59;99215.00;;;24.40
24639;BMP180;1641;51.306;12.384;2023-07-28T08:05:24;99209.00;;;24.20
24639;BMP180;1641;51.306;12.384;2023-07-28T08:07:49;99219.00;;;24.80
24639;BMP180;1641;51.306;12.384;2023-07-28T08:10:16;99222.00;;;24.70
24639;BMP180;1641;51.306;12.384;2023-07-28T08:12:42;99220.00;;;24.90
24639;BMP180;1641;51.306;12.384;2023-07-28T08:15:10;99230.00;;;26.00
24639;BMP180;1641;51.306;12.384;2023-07-28T08:17:35;99227.00;;;26.20
24639;BMP180;1641;51.306;12.384;2023-07-28T08:20:00;99219.00;;;26.20
24639;BMP180;1641;51.306;12.384;2023-07-28T08:22:26;99238.00;;;26.00
24639;BMP180;1641;51.306;12.384;2023-07-28T08:24:51;99242.00;;;25.20
24639;BMP180;1641;51.306;12.384;2023-07-28T08:27:16;99245.00;;;25.10
24639;BMP180;1641;51.306;12.384;2023-07-28T08:29:49;99244.00;;;25.30
24639;BMP180;1641;51.306;12.384;2023-07-28T08:32:14;99244.00;;;25.90
24639;BMP180;1641;51.306;12.384;2023-07-28T08:34:40;99242.00;;;26.10
24639;BMP180;1641;51.306;12.384;2023-07-28T08:37:05;99249.00;;;25.80
24639;BMP180;1641;51.306;12.384;2023-07-28T08:39:30;99248.00;;;25.70
24639;BMP180;1641;51.306;12.384;2023-07-28T08:42:03;99267.00;;;25.00
24639;BMP180;1641;51.306;12.384;2023-07-28T08:44:32;99255.00;;;25.20
24639;BMP180;1641;51.306;12.384;2023-07-28T08:46:59;99267.00;;;24.50
24639;BMP180;1641;51.306;12.384;2023-07-28T08:49:24;99259.00;;;25.00
24639;BMP180;1641;51.306;12.384;2023-07-28T08:51:50;99259.00;;;25.80
24639;BMP180;1641;51.306;12.384;2023-07-28T08:54:16;99251.00;;;25.30
24639;BMP180;1641;51.306;12.384;2023-07-28T08:56:42;99262.00;;;25.80
24639;BMP180;1641;51.306;12.384;2023-07-28T08:59:08;99262.00;;;25.70
24639;BMP180;1641;51.306;12.384;2023-07-28T09:01:41;99255.00;;;25.70
24639;BMP180;1641;51.306;12.384;2023-07-28T09:04:10;99258.00;;;27.00
24639;BMP180;1641;51.306;12.384;2023-07-28T09:06:36;99271.00;;;27.20
24639;BMP180;1641;51.306;12.384;2023-07-28T09:09:07;99266.00;;;27.70
24639;BMP180;1641;51.306;12.384;2023-07-28T09:11:33;99268.00;;;29.80
24639;BMP180;1641;51.306;12.384;2023-07-28T09:14:00;99258.00;;;31.80
24639;BMP180;1641;51.306;12.384;2023-07-28T09:16:28;99263.00;;;29.80
24639;BMP180;1641;51.306;12.384;2023-07-28T09:19:04;99275.00;;;28.70
24639;BMP180;1641;51.306;12.384;2023-07-28T09:21:30;99270.00;;;27.00
24639;BMP180;1641;51.306;12.384;2023-07-28T09:23:59;99267.00;;;27.90
24639;BMP180;1641;51.306;12.384;2023-07-28T09:26:36;99282.00;;;30.10
24639;BMP180;1641;51.306;12.384;2023-07-28T09:29:13;99281.00;;;26.90
24639;BMP180;1641;51.306;12.384;2023-07-28T09:31:39;99278.00;;;26.40
24639;BMP180;1641;51.306;12.384;2023-07-28T09:34:08;99290.00;;;26.70
24639;BMP180;1641;51.306;12.384;2023-07-28T09:36:35;99267.00;;;27.10
24639;BMP180;1641;51.306;12.384;2023-07-28T09:39:02;99286.00;;;27.70
24639;BMP180;1641;51.306;12.384;2023-07-28T09:41:29;99284.00;;;28.10
24639;BMP180;1641;51.306;12.384;2023-07-28T09:43:57;99290.00;;;28.20
24639;BMP180;1641;51.306;12.384;2023-07-28T09:46:24;99294.00;;;28.00
24639;BMP180;1641;51.306;12.384;2023-07-28T09:48:52;99293.00;;;28.00
24639;BMP180;1641;51.306;12.384;2023-07-28T09:51:20;99304.00;;;27.90
24639;BMP180;1641;51.306;12.384;2023-07-28T09:53:56;99309.00;;;27.50
24639;BMP180;1641;51.306;12.384;2023-07-28T09:56:27;99311.00;;;26.90
24639;BMP180;1641;51.306;12.384;2023-07-28T09:58:56;99306.00;;;25.80
24639;BMP180;1641;51.306;12.384;2023-07-28T10:01:23;99317.00;;;26.70
24639;BMP180;1641;51.306;12.384;2023-07-28T10:03:48;99311.00;;;26.00
24639;BMP180;1641;51.306;12.384;2023-07-28T10:06:14;99309.00;;;25.90
24639;BMP180;1641;51.306;12.384;2023-07-28T10:08:42;99311.00;;;26.40
24639;BMP180;1641;51.306;12.384;2023-07-28T10:11:09;99309.00;;;26.60
24639;BMP180;1641;51.306;12.384;2023-07-28T10:13:43;99300.00;;;27.30
24639;BMP180;1641;51.306;12.384;2023-07-28T10:16:09;99287.00;;;27.10
24639;BMP180;1641;51.306;12.384;2023-07-28T10:18:39;99299.00;;;26.90
24639;BMP180;1641;51.306;12.384;2023-07-28T10:21:10;99315.00;;;27.50
24639;BMP180;1641;51.306;12.384;2023-07-28T10:23:40;99311.00;;;27.60
24639;BMP180;1641;51.306;12.384;2023-07-28T10:26:06;99310.00;;;27.40
24639;BMP180;1641;51.306;12.384;2023-07-28T10:28:32;99305.00;;;27.30
24639;BMP180;1641;51.306;12.384;2023-07-28T10:31:01;99311.00;;;27.70
24639;BMP180;1641;51.306;12.384;2023-07-28T10:33:33;99319.00;;;26.90
24639;BMP180;1641;51.306;12.384;2023-07-28T10:35:59;99323.00;;;26.90
24639;BMP180;1641;51.306;12.384;2023-07-28T10:38:34;99316.00;;;27.30
24639;BMP180;1641;51.306;12.384;2023-07-28T10:41:17;99324.00;;;27.30
24639;BMP180;1641;51.306;12.384;2023-07-28T10:43:45;99322.00;;;27.10
24639;BMP180;1641;51.306;12.384;2023-07-28T10:46:15;99312.00;;;27.50
24639;BMP180;1641;51.306;12.384;2023-07-28T10:48:42;99319.00;;;27.20
24639;BMP180;1641;51.306;12.384;2023-07-28T10:51:09;99320.00;;;26.40
24639;BMP180;1641;51.306;12.384;2023-07-28T10:53:37;99296.00;;;25.80
24639;BMP180;1641;51.306;12.384;2023-07-28T10:56:06;99315.00;;;25.90
24639;BMP180;1641;51.306;12.384;2023-07-28T10:58:39;99314.00;;;26.40
24639;BMP180;1641;51.306;12.384;2023-07-28T11:01:04;99314.00;;;26.70
24639;BMP180;1641;51.306;12.384;2023-07-28T11:03:30;99305.00;;;27.40
24639;BMP180;1641;51.306;12.384;2023-07-28T11:05:58;99307.00;;;27.10
24639;BMP180;1641;51.306;12.384;2023-07-28T11:08:24;99314.00;;;27.70
24639;BMP180;1641;51.306;12.384;2023-07-28T11:10:50;99309.00;;;27.50
24639;BMP180;1641;51.306;12.384;2023-07-28T11:13:15;99294.00;;;27.40
24639;BMP180;1641;51.306;12.384;2023-07-28T11:15:40;99282.00;;;27.40
24639;BMP180;1641;51.306;12.384;2023-07-28T11:18:06;99291.00;;;27.60
24639;BMP180;1641;51.306;12.384;2023-07-28T11:20:32;99290.00;;;27.40
24639;BMP180;1641;51.306;12.384;2023-07-28T11:22:59;99297.00;;;27.40
24639;BMP180;1641;51.306;12.384;2023-07-28T11:25:26;99300.00;;;28.20
24639;BMP180;1641;51.306;12.384;2023-07-28T11:27:53;99298.00;;;28.20
24639;BMP180;1641;51.306;12.384;2023-07-28T11:30:19;99291.00;;;28.50
24639;BMP180;1641;51.306;12.384;2023-07-28T11:32:50;99310.00;;;28.20
24639;BMP180;1641;51.306;12.384;2023-07-28T11:35:18;99296.00;;;27.60
24639;BMP180;1641;51.306;12.384;2023-07-28T11:37:47;99309.00;;;27.20
24639;BMP180;1641;51.306;12.384;2023-07-28T11:40:15;99299.00;;;26.60
24639;BMP180;1641;51.306;12.384;2023-07-28T11:42:44;99300.00;;;26.90
24639;BMP180;1641;51.306;12.384;2023-07-28T11:45:13;99292.00;;;27.30
24639;BMP180;1641;51.306;12.384;2023-07-28T11:47:38;99305.00;;;27.60
24639;BMP180;1641;51.306;12.384;2023-07-28T11:50:04;99309.00;;;27.40
24639;BMP180;1641;51.306;12.384;2023-07-28T11:52:34;99304.00;;;27.50
24639;BMP180;1641;51.306;12.384;2023-07-28T11:55:06;99296.00;;;27.40
24639;BMP180;1641;51.306;12.384;2023-07-28T11:57:32;99299.00;;;27.30
24639;BMP180;1641;51.306;12.384;2023-07-28T12:00:00;99309.00;;;27.40
24639;BMP180;1641;51.306;12.384;2023-07-28T12:02:27;99314.00;;;27.30
24639;BMP180;1641;51.306;12.384;2023-07-28T12:04:53;99316.00;;;26.80
24639;BMP180;1641;51.306;12.384;2023-07-28T12:07:27;99310.00;;;27.10
24639;BMP180;1641;51.306;12.384;2023-07-28T12:09:56;99311.00;;;27.60
24639;BMP180;1641;51.306;12.384;2023-07-28T12:12:29;99326.00;;;28.00
24639;BMP180;1641;51.306;12.384;2023-07-28T12:14:56;99314.00;;;28.40
24639;BMP180;1641;51.306;12.384;2023-07-28T12:17:23;99315.00;;;27.90
24639;BMP180;1641;51.306;12.384;2023-07-28T12:20:04;99324.00;;;27.20
24639;BMP180;1641;51.306;12.384;2023-07-28T12:22:37;99322.00;;;27.60
24639;BMP180;1641;51.306;12.384;2023-07-28T12:25:04;99327.00;;;27.80
24639;BMP180;1641;51.306;12.384;2023-07-28T12:27:32;99326.00;;;27.80
24639;BMP180;1641;51.306;12.384;2023-07-28T12:29:58;99319.00;;;28.10
24639;BMP180;1641;51.306;12.384;2023-07-28T12:32:24;99323.00;;;28.10
24639;BMP180;1641;51.306;12.384;2023-07-28T12:34:50;99310.00;;;27.80
24639;BMP180;1641;51.306;12.384;2023-07-28T12:37:16;99333.00;;;28.10
24639;BMP180;1641;51.306;12.384;2023-07-28T12:39:41;99320.00;;;27.80
24639;BMP180;1641;51.306;12.384;2023-07-28T12:42:07;99322.00;;;27.90
24639;BMP180;1641;51.306;12.384;2023-07-28T12:44:37;99328.00;;;26.70
24639;BMP180;1641;51.306;12.384;2023-07-28T12:47:08;99340.00;;;26.70
24639;BMP180;1641;51.306;12.384;2023-07-28T12:49:34;99331.00;;;26.20
24639;BMP180;1641;51.306;12.384;2023-07-28T12:52:04;99340.00;;;26.50
24639;BMP180;1641;51.306;12.384;2023-07-28T12:54:34;99342.00;;;26.30
24639;BMP180;1641;51.306;12.384;2023-07-28T12:57:00;99332.00;;;26.30
24639;BMP180;1641;51.306;12.384;2023-07-28T12:59:26;99354.00;;;26.90
24639;BMP180;1641;51.306;12.384;2023-07-28T13:01:52;99355.00;;;27.10
24639;BMP180;1641;51.306;12.384;2023-07-28T13:04:17;99352.00;;;27.10
24639;BMP180;1641;51.306;12.384;2023-07-28T13:06:43;99345.00;;;27.40
24639;BMP180;1641;51.306;12.384;2023-07-28T13:09:09;99350.00;;;28.10
24639;BMP180;1641;51.306;12.384;2023-07-28T13:11:34;99339.00;;;28.20
24639;BMP180;1641;51.306;12.384;2023-07-28T13:14:00;99339.00;;;27.90
24639;BMP180;1641;51.306;12.384;2023-07-28T13:16:26;99335.00;;;28.10
24639;BMP180;1641;51.306;12.384;2023-07-28T13:18:54;99349.00;;;27.80
24639;BMP180;1641;51.306;12.384;2023-07-28T13:21:20;99350.00;;;27.50
24639;BMP180;1641;51.306;12.384;2023-07-28T13:23:45;99355.00;;;27.60
24639;BMP180;1641;51.306;12.384;2023-07-28T13:26:11;99345.00;;;28.20
24639;BMP180;1641;51.306;12.384;2023-07-28T13:28:36;99346.00;;;28.50
24639;BMP180;1641;51.306;12.384;2023-07-28T13:31:02;99338.00;;;28.30
24639;BMP180;1641;51.306;12.384;2023-07-28T13:33:28;99338.00;;;28.60
24639;BMP180;1641;51.306;12.384;2023-07-28T13:35:53;99318.00;;;28.20
24639;BMP180;1641;51.306;12.384;2023-07-28T13:38:21;99314.00;;;27.90
24639;BMP180;1641;51.306;12.384;2023-07-28T13:40:47;99328.00;;;28.40
24639;BMP180;1641;51.306;12.384;2023-07-28T13:43:12;99338.00;;;27.90
24639;BMP180;1641;51.306;12.384;2023-07-28T13:45:40;99334.00;;;28.10
24639;BMP180;1641;51.306;12.384;2023-07-28T13:48:17;99340.00;;;27.40
24639;BMP180;1641;51.306;12.384;2023-07-28T13:50:43;99338.00;;;27.30
24639;BMP180;1641;51.306;12.384;2023-07-28T13:53:09;99329.00;;;27.40
24639;BMP180;1641;51.306;12.384;2023-07-28T13:55:38;99332.00;;;27.20
24639;BMP180;1641;51.306;12.384;2023-07-28T13:58:04;99323.00;;;27.70
24639;BMP180;1641;51.306;12.384;2023-07-28T14:00:29;99332.00;;;28.10
24639;BMP180;1641;51.306;12.384;2023-07-28T14:02:54;99326.00;;;27.30
24639;BMP180;1641;51.306;12.384;2023-07-28T14:05:20;99340.00;;;26.60
24639;BMP180;1641;51.306;12.384;2023-07-28T14:07:45;99338.00;;;27.10
24639;BMP180;1641;51.306;12.384;2023-07-28T14:10:11;99342.00;;;27.00
24639;BMP180;1641;51.306;12.384;2023-07-28T14:12:36;99334.00;;;27.60
24639;BMP180;1641;51.306;12.384;2023-07-28T14:15:03;99340.00;;;27.60